PWSweather.com
Personal Weather Stations
Station Observations

EtonMackayAU

Lat: -21.263, Lon: 148.975

Elevation: 106

Station Type: Davis Vantage Vue

http://aspgweather.com/cumulus/data.php

Latest ConditionsUpdated 3:11:00 AM GMT+10:10 Monday, Jan 27, 2020
Currently Today's Max Today's Min Today's Average
Temperature 73.4°F23.0°C 74.1°F23.4°C 71.2°F21.8°C 72.8°F22.7°C
Dew Point 70.5°F21.4°C 72.5°F22.5°C 69.4°F20.8°C 70.7°F21.5°C
Winds 2.0 mph SE3.2 kmh SE 15.7 mph -25.3 kmh - - 9.8 mph 15.8 kmh
Wind Gusts 2.7 mph4.3 kmh 19.3 mph31.1 kmh - -
Humidity 91% 96% 89% 93%
Pressure 29.74 in1007.1 mb 29.81 in1009.5 mb 29.74 in1007.1 mb -
Hour Temp Dew Point Humidity Winds Wind Gusts Pressure Precip Precip Rate Daily Precip Total
03:11 AM 73.4°F23.0°C 70.5°F21.4°C 91% 2.0 mph SE3.2 kmh SE 2.7 mph4.3 kmh 29.74 in1007.1 mb 0.00 in0.0 mm 0.00 in0.0 mm 0.00 in0.0 mm
03:06 AM 73.6°F23.1°C 70.7°F21.5°C 91% 2.0 mph SSE3.2 kmh SSE 2.7 mph4.3 kmh 29.75 in1007.5 mb 0.00 in0.0 mm 0.00 in0.0 mm 0.00 in0.0 mm
03:01 AM 73.8°F23.2°C 70.9°F21.6°C 91% 2.9 mph SE4.7 kmh SE 3.8 mph6.1 kmh 29.75 in1007.5 mb 0.00 in0.0 mm 0.00 in0.0 mm 0.00 in0.0 mm
02:56 AM 73.9°F23.3°C 70.9°F21.6°C 90% 3.4 mph SSE5.5 kmh SSE 5.2 mph8.4 kmh 29.75 in1007.5 mb 0.00 in0.0 mm 0.00 in0.0 mm 0.00 in0.0 mm
02:51 AM 73.9°F23.3°C 70.9°F21.6°C 90% 4.4 mph SSE7.1 kmh SSE 6.3 mph10.1 kmh 29.75 in1007.5 mb 0.00 in0.0 mm 0.00 in0.0 mm 0.00 in0.0 mm
02:46 AM 73.9°F23.3°C 70.9°F21.6°C 90% 6.2 mph SSE10.0 kmh SSE 7.8 mph12.6 kmh 29.75 in1007.5 mb 0.00 in0.0 mm 0.00 in0.0 mm 0.00 in0.0 mm
02:41 AM 74.1°F23.4°C 70.7°F21.5°C 89% 8.0 mph SSE12.9 kmh SSE 10.3 mph16.6 kmh 29.75 in1007.5 mb 0.00 in0.0 mm 0.00 in0.0 mm 0.00 in0.0 mm
02:36 AM 74.1°F23.4°C 70.7°F21.5°C 89% 10.1 mph S16.3 kmh S 13.0 mph20.9 kmh 29.75 in1007.5 mb 0.00 in0.0 mm 0.00 in0.0 mm 0.00 in0.0 mm
02:31 AM 73.9°F23.3°C 70.5°F21.4°C 89% 10.5 mph S16.9 kmh S 13.0 mph20.9 kmh 29.75 in1007.5 mb 0.00 in0.0 mm 0.00 in0.0 mm 0.00 in0.0 mm
02:26 AM 73.8°F23.2°C 70.7°F21.5°C 90% 10.1 mph S16.3 kmh S 11.4 mph18.3 kmh 29.75 in1007.5 mb 0.00 in0.0 mm 0.00 in0.0 mm 0.00 in0.0 mm
02:21 AM 73.4°F23.0°C 70.3°F21.3°C 90% 10.1 mph S16.3 kmh S 13.0 mph20.9 kmh 29.75 in1007.5 mb 0.00 in0.0 mm 0.00 in0.0 mm 0.00 in0.0 mm
02:16 AM 72.9°F22.7°C 69.8°F21.0°C 90% 9.8 mph S15.8 kmh S 13.0 mph20.9 kmh 29.75 in1007.5 mb 0.00 in0.0 mm 0.00 in0.0 mm 0.00 in0.0 mm
02:11 AM 72.7°F22.6°C 69.8°F21.0°C 91% 10.2 mph S16.4 kmh S 11.4 mph18.3 kmh 29.75 in1007.5 mb 0.00 in0.0 mm 0.00 in0.0 mm 0.00 in0.0 mm
02:06 AM 72.5°F22.5°C 70.0°F21.1°C 92% 11.3 mph S18.2 kmh S 13.0 mph20.9 kmh 29.76 in1007.8 mb 0.00 in0.0 mm 0.00 in0.0 mm 0.00 in0.0 mm
02:01 AM 72.3°F22.4°C 69.8°F21.0°C 92% 11.7 mph S18.8 kmh S 13.0 mph20.9 kmh 29.76 in1007.8 mb 0.00 in0.0 mm 0.00 in0.0 mm 0.00 in0.0 mm
01:56 AM 72.0°F22.2°C 69.8°F21.0°C 93% 12.6 mph S20.3 kmh S 14.1 mph22.7 kmh 29.76 in1007.8 mb 0.00 in0.0 mm 0.00 in0.0 mm 0.00 in0.0 mm
01:51 AM 71.6°F22.0°C 69.4°F20.8°C 93% 14.4 mph S23.2 kmh S 18.1 mph29.1 kmh 29.76 in1007.8 mb 0.00 in0.0 mm 0.00 in0.0 mm 0.00 in0.0 mm
01:46 AM 71.4°F21.9°C 69.6°F20.9°C 94% 15.7 mph S25.3 kmh S 18.1 mph29.1 kmh 29.76 in1007.8 mb 0.00 in0.0 mm 0.00 in0.0 mm 0.00 in0.0 mm
01:41 AM 71.4°F21.9°C 69.6°F20.9°C 94% 15.6 mph S25.1 kmh S 18.1 mph29.1 kmh 29.77 in1008.1 mb 0.00 in0.0 mm 0.00 in0.0 mm 0.00 in0.0 mm
01:36 AM 71.2°F21.8°C 69.4°F20.8°C 94% 14.5 mph S23.3 kmh S 18.1 mph29.1 kmh 29.77 in1008.1 mb 0.00 in0.0 mm 0.00 in0.0 mm 0.00 in0.0 mm
01:31 AM 71.4°F21.9°C 69.6°F20.9°C 94% 13.6 mph S21.9 kmh S 16.5 mph26.6 kmh 29.77 in1008.1 mb 0.00 in0.0 mm 0.00 in0.0 mm 0.00 in0.0 mm
01:21 AM 71.4°F21.9°C 70.0°F21.1°C 95% 12.6 mph SSE20.3 kmh SSE 15.4 mph24.8 kmh 29.78 in1008.5 mb 0.00 in0.0 mm 0.00 in0.0 mm 0.00 in0.0 mm
01:16 AM 71.6°F22.0°C 70.2°F21.2°C 95% 11.2 mph SSE18.0 kmh SSE 15.4 mph24.8 kmh 29.78 in1008.5 mb 0.00 in0.0 mm 0.00 in0.0 mm 0.00 in0.0 mm
01:11 AM 71.6°F22.0°C 70.2°F21.2°C 95% 10.8 mph SSE17.4 kmh SSE 13.0 mph20.9 kmh 29.79 in1008.8 mb 0.00 in0.0 mm 0.00 in0.0 mm 0.00 in0.0 mm
01:06 AM 72.0°F22.2°C 70.5°F21.4°C 95% 12.2 mph SSE19.6 kmh SSE 16.5 mph26.6 kmh 29.79 in1008.8 mb 0.00 in0.0 mm 0.00 in0.0 mm 0.00 in0.0 mm
01:01 AM 72.0°F22.2°C 70.5°F21.4°C 95% 13.1 mph SSE21.1 kmh SSE 19.3 mph31.1 kmh 29.79 in1008.8 mb 0.00 in0.0 mm 0.00 in0.0 mm 0.00 in0.0 mm
12:56 AM 72.3°F22.4°C 70.9°F21.6°C 95% 13.1 mph SSE21.1 kmh SSE 19.3 mph31.1 kmh 29.80 in1009.1 mb 0.00 in0.0 mm 0.00 in0.0 mm 0.00 in0.0 mm
12:51 AM 72.5°F22.5°C 71.1°F21.7°C 95% 12.8 mph SSE20.6 kmh SSE 14.1 mph22.7 kmh 29.80 in1009.1 mb 0.00 in0.0 mm 0.00 in0.0 mm 0.00 in0.0 mm
12:46 AM 72.5°F22.5°C 71.1°F21.7°C 95% 13.8 mph SSE22.2 kmh SSE 16.5 mph26.6 kmh 29.80 in1009.1 mb 0.00 in0.0 mm 0.00 in0.0 mm 0.00 in0.0 mm
12:41 AM 72.7°F22.6°C 71.2°F21.8°C 95% 13.4 mph SSE21.6 kmh SSE 16.5 mph26.6 kmh 29.80 in1009.1 mb 0.00 in0.0 mm 0.00 in0.0 mm 0.00 in0.0 mm
12:36 AM 72.9°F22.7°C 71.4°F21.9°C 95% 12.2 mph SSE19.6 kmh SSE 16.5 mph26.6 kmh 29.81 in1009.5 mb 0.00 in0.0 mm 0.00 in0.0 mm 0.00 in0.0 mm
12:31 AM 72.9°F22.7°C 71.4°F21.9°C 95% 11.1 mph SE17.9 kmh SE 15.4 mph24.8 kmh 29.81 in1009.5 mb 0.00 in0.0 mm 0.00 in0.0 mm 0.00 in0.0 mm
12:26 AM 73.4°F23.0°C 72.0°F22.2°C 95% 9.5 mph SE15.3 kmh SE 13.0 mph20.9 kmh 29.81 in1009.5 mb 0.00 in0.0 mm 0.00 in0.0 mm 0.00 in0.0 mm
12:21 AM 73.6°F23.1°C 72.1°F22.3°C 95% 9.1 mph SE14.6 kmh SE 11.4 mph18.3 kmh 29.81 in1009.5 mb 0.00 in0.0 mm 0.00 in0.0 mm 0.00 in0.0 mm
12:16 AM 73.6°F23.1°C 72.1°F22.3°C 95% 8.9 mph SE14.3 kmh SE 11.4 mph18.3 kmh 29.81 in1009.5 mb 0.00 in0.0 mm 0.00 in0.0 mm 0.00 in0.0 mm
12:11 AM 73.8°F23.2°C 72.5°F22.5°C 96% 6.7 mph SE10.8 kmh SE 11.4 mph18.3 kmh 29.81 in1009.5 mb 0.00 in0.0 mm 0.00 in0.0 mm 0.00 in0.0 mm
12:06 AM 73.8°F23.2°C 72.3°F22.4°C 95% 3.5 mph S5.6 kmh S 7.8 mph12.6 kmh 29.81 in1009.5 mb 0.00 in0.0 mm 0.00 in0.0 mm 0.00 in0.0 mm
12:01 AM 73.8°F23.2°C 72.5°F22.5°C 96% 0.8 mph WNW1.3 kmh WNW 2.7 mph4.3 kmh 29.81 in1009.5 mb 0.00 in0.0 mm 0.00 in0.0 mm 0.00 in0.0 mm